Time;durP1;ratioP1;P1;durP2;ratioP2;P2;SDS_P1;SDS_P2;PMS_P1;PMS_P2;Temp;Humidity;BMP_temperature;BMP_pressure;BME280_temperature;BME280_humidity;BME280_pressure;Samples;Min_cycle;Max_cycle;Signal;HPM_P1;HPM_P2
2023/09/30 00:00:02;;;;;;;3.13;0.35;;;16.90;99.90;;;;;;4930066;29;20075;-96
2023/09/30 00:02:28;;;;;;;0.10;0.10;;;16.90;99.90;;;;;;4938748;29;20036;-96
2023/09/30 00:04:53;;;;;;;0.10;0.10;;;16.90;99.90;;;;;;4948323;28;20038;-96
2023/09/30 00:07:19;;;;;;;0.10;0.10;;;17.00;99.90;;;;;;4922989;29;20038;-96
2023/09/30 00:09:45;;;;;;;0.20;0.20;;;16.90;99.90;;;;;;4919777;29;20028;-96
2023/09/30 00:12:11;;;;;;;0.05;0.03;;;17.00;99.90;;;;;;4928209;29;20372;-94
2023/09/30 00:14:37;;;;;;;0.10;0.10;;;17.00;99.90;;;;;;4928061;29;20492;-96
2023/09/30 00:17:03;;;;;;;0.13;0.13;;;17.10;99.90;;;;;;4927187;29;20068;-96
2023/09/30 00:19:33;;;;;;;0.20;0.20;;;17.00;99.90;;;;;;4926847;29;20028;-96
2023/09/30 00:22:00;;;;;;;0.10;0.10;;;17.10;99.90;;;;;;4927807;29;20027;-96
2023/09/30 00:24:26;;;;;;;0.38;0.28;;;17.00;99.90;;;;;;4927940;29;20023;-95
2023/09/30 00:26:52;;;;;;;0.10;0.10;;;16.90;99.90;;;;;;4927290;29;20020;-95
2023/09/30 00:29:17;;;;;;;0.10;0.10;;;16.90;99.90;;;;;;4925791;29;20028;-93
2023/09/30 00:31:44;;;;;;;0.10;0.10;;;17.00;99.90;;;;;;4925692;29;20030;-95
2023/09/30 00:34:10;;;;;;;0.10;0.10;;;17.00;99.90;;;;;;4926162;29;20035;-95
2023/09/30 00:36:36;;;;;;;0.10;0.10;;;16.80;99.90;;;;;;4926596;29;20097;-95
2023/09/30 00:39:01;;;;;;;0.47;0.47;;;16.80;99.90;;;;;;4931845;28;20729;-94
2023/09/30 00:41:28;;;;;;;0.20;0.20;;;16.70;99.90;;;;;;4933238;28;20040;-95
2023/09/30 00:43:54;;;;;;;0.10;0.10;;;16.70;99.90;;;;;;4926972;29;20487;-95
2023/09/30 00:46:29;;;;;;;0.20;0.20;;;16.70;99.90;;;;;;4920584;29;20020;-95
2023/09/30 00:48:57;;;;;;;0.30;0.30;;;16.80;99.90;;;;;;4936983;28;20036;-94
2023/09/30 00:51:23;;;;;;;0.47;0.47;;;16.90;99.90;;;;;;4924797;29;20062;-95
2023/09/30 00:53:51;;;;;;;0.25;0.25;;;17.00;99.90;;;;;;4924105;29;20020;-95
2023/09/30 00:56:19;;;;;;;0.10;0.10;;;17.00;99.90;;;;;;4920180;29;20020;-94
2023/09/30 00:58:46;;;;;;;0.28;0.28;;;17.00;99.90;;;;;;4924049;29;20090;-93
2023/09/30 01:01:12;;;;;;;0.10;0.10;;;16.90;99.90;;;;;;4919503;29;20040;-95
2023/09/30 01:03:38;;;;;;;5.65;0.38;;;16.80;99.90;;;;;;4936698;29;20070;-94
2023/09/30 01:06:04;;;;;;;0.17;0.17;;;16.80;99.90;;;;;;4922971;29;20020;-94
2023/09/30 01:08:32;;;;;;;0.47;0.45;;;16.70;99.90;;;;;;4920918;29;20560;-94
2023/09/30 01:10:58;;;;;;;0.20;0.20;;;16.70;99.90;;;;;;4920977;29;20020;-94
2023/09/30 01:13:31;;;;;;;4.28;0.60;;;16.60;99.90;;;;;;4924080;29;20185;-93
2023/09/30 01:15:57;;;;;;;0.55;0.55;;;16.70;99.90;;;;;;4932993;28;20036;-94
2023/09/30 01:18:22;;;;;;;0.98;0.82;;;16.80;99.90;;;;;;4925251;29;20079;-96
2023/09/30 01:20:52;;;;;;;0.10;0.10;;;16.80;99.90;;;;;;4922939;29;20055;-95
2023/09/30 01:23:19;;;;;;;1.85;0.20;;;16.70;99.90;;;;;;4926007;29;20500;-95
2023/09/30 01:25:44;;;;;;;0.10;0.10;;;16.60;99.90;;;;;;4923826;29;20020;-95
2023/09/30 01:28:10;;;;;;;0.35;0.35;;;16.50;99.90;;;;;;4928696;29;20235;-94
2023/09/30 01:30:36;;;;;;;0.10;0.10;;;16.60;99.90;;;;;;4920425;29;20119;-94
2023/09/30 01:33:02;;;;;;;0.55;0.55;;;16.50;99.90;;;;;;4921583;29;20024;-95
2023/09/30 01:35:28;;;;;;;0.20;0.20;;;16.60;99.90;;;;;;4923123;29;20028;-95
2023/09/30 01:37:54;;;;;;;2.80;0.28;;;16.50;99.90;;;;;;4926233;29;20309;-95
2023/09/30 01:40:19;;;;;;;0.10;0.10;;;16.60;99.90;;;;;;4926179;29;20302;-94
2023/09/30 01:42:45;;;;;;;0.55;0.55;;;16.50;99.90;;;;;;4929295;29;20063;-94
2023/09/30 01:45:13;;;;;;;0.13;0.13;;;16.50;99.90;;;;;;4920459;29;20039;-95
2023/09/30 01:47:38;;;;;;;0.25;0.25;;;16.40;99.90;;;;;;4929066;29;20027;-95
2023/09/30 01:50:05;;;;;;;0.10;0.10;;;16.40;99.90;;;;;;4926239;29;20054;-95
2023/09/30 01:52:31;;;;;;;0.17;0.17;;;16.50;99.90;;;;;;4924638;29;20090;-95
2023/09/30 01:55:00;;;;;;;0.10;0.10;;;16.50;99.90;;;;;;4929226;29;20032;-96
2023/09/30 01:57:26;;;;;;;1.00;0.95;;;16.50;99.90;;;;;;4931869;29;20035;-96
2023/09/30 01:59:52;;;;;;;0.80;0.60;;;16.40;99.90;;;;;;4942590;29;20492;-96
2023/09/30 02:02:18;;;;;;;0.10;0.10;;;16.20;99.90;;;;;;4939563;29;20484;-96
2023/09/30 02:04:44;;;;;;;0.85;0.85;;;16.20;99.90;;;;;;4924962;29;20059;-96
2023/09/30 02:07:13;;;;;;;0.10;0.10;;;16.20;99.90;;;;;;4937456;28;20263;-96
2023/09/30 02:09:39;;;;;;;0.10;0.10;;;16.20;99.90;;;;;;4927776;29;20024;-96
2023/09/30 02:12:07;;;;;;;0.10;0.10;;;16.20;99.90;;;;;;4928017;29;20032;-94
2023/09/30 02:14:33;;;;;;;4.28;0.52;;;16.20;99.90;;;;;;4928891;29;20065;-96
2023/09/30 02:16:59;;;;;;;0.20;0.20;;;16.10;99.90;;;;;;4929290;29;20035;-96
2023/09/30 02:19:27;;;;;;;0.35;0.35;;;16.10;99.90;;;;;;4922950;29;20021;-95
2023/09/30 02:21:52;;;;;;;0.15;0.15;;;16.10;99.90;;;;;;4923206;29;20113;-96
2023/09/30 02:24:18;;;;;;;1.15;0.43;;;16.20;99.90;;;;;;4937514;28;20131;-96
2023/09/30 02:26:44;;;;;;;0.65;0.65;;;16.30;99.90;;;;;;4922396;29;20838;-96
2023/09/30 02:29:10;;;;;;;0.10;0.10;;;16.30;99.90;;;;;;4923460;29;20028;-95
2023/09/30 02:31:36;;;;;;;0.47;0.47;;;16.40;99.90;;;;;;4929088;29;20032;-95
2023/09/30 02:34:02;;;;;;;0.25;0.25;;;16.30;99.90;;;;;;4929382;29;20027;-96
2023/09/30 02:36:28;;;;;;;0.75;0.75;;;16.30;99.90;;;;;;4927429;29;20477;-96
2023/09/30 02:38:54;;;;;;;0.15;0.15;;;16.40;99.90;;;;;;4921262;29;20171;-96
2023/09/30 02:41:20;;;;;;;0.20;0.20;;;16.40;99.90;;;;;;4928829;29;20086;-96
2023/09/30 02:43:46;;;;;;;0.35;0.35;;;16.30;99.90;;;;;;4927503;29;20050;-96
2023/09/30 02:46:12;;;;;;;0.13;0.13;;;16.30;99.90;;;;;;4926207;29;20031;-96
2023/09/30 02:48:38;;;;;;;0.20;0.20;;;16.20;99.90;;;;;;4927788;29;20031;-96
2023/09/30 02:51:04;;;;;;;0.25;0.25;;;16.10;99.90;;;;;;4920301;29;20585;-95
2023/09/30 02:53:29;;;;;;;0.10;0.10;;;16.10;99.90;;;;;;4926296;29;20465;-96
2023/09/30 02:55:56;;;;;;;0.30;0.30;;;16.10;99.90;;;;;;4926730;29;20534;-96
2023/09/30 02:58:24;;;;;;;0.20;0.20;;;16.10;99.90;;;;;;4920420;29;20032;-96
2023/09/30 03:00:49;;;;;;;0.03;0.03;;;16.10;99.90;;;;;;4927694;29;20472;-95
2023/09/30 03:03:15;;;;;;;0.10;0.10;;;16.10;99.90;;;;;;4926512;29;20346;-95
2023/09/30 03:05:41;;;;;;;0.10;0.10;;;16.00;99.90;;;;;;4928269;29;20052;-96
2023/09/30 03:08:07;;;;;;;0.20;0.20;;;16.00;99.90;;;;;;4931401;29;20087;-96
2023/09/30 03:10:34;;;;;;;0.10;0.10;;;15.90;99.90;;;;;;4935739;29;20027;-96
2023/09/30 03:13:02;;;;;;;1.08;0.20;;;16.00;99.90;;;;;;4932939;29;20024;-96
2023/09/30 03:15:30;;;;;;;0.47;0.47;;;15.90;99.90;;;;;;4922349;29;20082;-95
2023/09/30 03:17:56;;;;;;;0.10;0.10;;;16.00;99.90;;;;;;4922288;29;20051;-96
2023/09/30 03:20:25;;;;;;;0.22;0.22;;;16.00;99.90;;;;;;4922113;29;20596;-95
2023/09/30 03:22:51;;;;;;;0.10;0.10;;;16.10;99.90;;;;;;4938390;28;20090;-96
2023/09/30 03:25:17;;;;;;;0.10;0.10;;;16.10;99.90;;;;;;4923075;29;20023;-95
2023/09/30 03:27:46;;;;;;;0.50;0.50;;;16.00;99.90;;;;;;4940724;28;20020;-95
2023/09/30 03:30:12;;;;;;;0.20;0.20;;;16.00;99.90;;;;;;5035565;23;20043;-95
2023/09/30 03:32:39;;;;;;;1.40;0.30;;;16.00;99.90;;;;;;4984168;23;20036;-95
2023/09/30 03:35:14;;;;;;;0.35;0.35;;;16.00;99.90;;;;;;4939521;23;20040;-95
2023/09/30 03:37:41;;;;;;;0.10;0.10;;;15.90;99.90;;;;;;4912592;29;20090;-96
2023/09/30 03:40:14;;;;;;;0.43;0.43;;;15.90;99.90;;;;;;4910804;29;20039;-96
2023/09/30 03:42:51;;;;;;;0.20;0.20;;;15.80;99.90;;;;;;4915954;29;20027;-96
2023/09/30 03:45:17;;;;;;;0.88;0.63;;;15.90;99.90;;;;;;4911435;29;20048;-95
2023/09/30 03:47:44;;;;;;;1.85;0.73;;;15.90;99.90;;;;;;4917642;29;20578;-96
2023/09/30 03:50:15;;;;;;;0.25;0.25;;;15.90;99.90;;;;;;4914598;29;20028;-95
2023/09/30 03:52:44;;;;;;;0.82;0.45;;;15.90;99.90;;;;;;4907181;29;20253;-95
2023/09/30 03:55:13;;;;;;;0.47;0.40;;;15.90;99.90;;;;;;4924404;29;20039;-95
2023/09/30 03:57:38;;;;;;;0.20;0.20;;;15.70;99.90;;;;;;4920119;29;20039;-95
2023/09/30 04:00:11;;;;;;;0.65;0.25;;;15.80;99.90;;;;;;4953065;23;20214;-95
2023/09/30 04:02:37;;;;;;;;;;;15.70;99.90;;;;;;4907931;29;20160;-96
2023/09/30 04:05:05;;;;;;;0.52;0.25;;;15.80;99.90;;;;;;4922852;29;19907;-95
2023/09/30 04:07:31;;;;;;;0.40;0.40;;;15.80;99.90;;;;;;4905546;29;20034;-95
2023/09/30 04:10:01;;;;;;;0.20;0.20;;;15.90;99.90;;;;;;4900008;29;20082;-95
2023/09/30 04:12:26;;;;;;;1.65;0.43;;;16.00;99.90;;;;;;4907469;29;20072;-95
2023/09/30 04:14:52;;;;;;;0.38;0.38;;;15.90;99.90;;;;;;4922897;29;20027;-95
2023/09/30 04:17:18;;;;;;;0.65;0.35;;;16.00;99.90;;;;;;4909077;29;20035;-95
2023/09/30 04:19:44;;;;;;;0.57;0.55;;;16.10;99.90;;;;;;4903929;29;20043;-95
2023/09/30 04:22:10;;;;;;;0.20;0.20;;;16.10;99.90;;;;;;4907546;29;20020;-94
2023/09/30 04:24:35;;;;;;;0.30;0.30;;;16.10;99.90;;;;;;4904929;29;20257;-95
2023/09/30 04:27:04;;;;;;;0.47;0.45;;;16.10;99.90;;;;;;4924231;29;20495;-95
2023/09/30 04:29:30;;;;;;;0.25;0.25;;;15.90;99.90;;;;;;4906618;29;20131;-94
2023/09/30 04:31:56;;;;;;;2.72;1.05;;;15.90;99.90;;;;;;4906642;29;20688;-96
2023/09/30 04:34:22;;;;;;;0.28;0.28;;;15.90;99.90;;;;;;4900672;29;20034;-95
2023/09/30 04:36:48;;;;;;;0.20;0.20;;;16.00;99.90;;;;;;4899775;29;20031;-95
2023/09/30 04:39:15;;;;;;;0.30;0.30;;;16.00;99.90;;;;;;4905046;29;20062;-96
2023/09/30 04:41:43;;;;;;;0.43;0.38;;;16.00;99.90;;;;;;4900056;29;20024;-96
2023/09/30 04:44:09;;;;;;;0.15;0.15;;;16.00;99.90;;;;;;4904167;29;20023;-95
2023/09/30 04:46:40;;;;;;;0.40;0.40;;;16.00;99.90;;;;;;4905341;29;20038;-95
2023/09/30 04:49:09;;;;;;;0.45;0.45;;;16.00;99.90;;;;;;4907570;29;20415;-95
2023/09/30 04:51:35;;;;;;;0.52;0.50;;;16.00;99.90;;;;;;4907286;29;20040;-94
2023/09/30 04:54:03;;;;;;;1.38;0.68;;;16.00;99.90;;;;;;4908927;29;20099;-95
2023/09/30 04:56:29;;;;;;;0.40;0.40;;;15.90;99.90;;;;;;4899890;29;20482;-94
2023/09/30 04:58:55;;;;;;;0.25;0.25;;;15.80;99.90;;;;;;4906651;29;20912;-95
2023/09/30 05:01:26;;;;;;;0.65;0.65;;;15.80;99.90;;;;;;4927871;28;20027;-96
2023/09/30 05:03:53;;;;;;;0.65;0.65;;;15.90;99.90;;;;;;4930421;29;20102;-96
2023/09/30 05:06:19;;;;;;;2.00;0.30;;;15.90;99.90;;;;;;4913494;29;20023;-96
2023/09/30 05:08:44;;;;;;;0.57;0.57;;;15.90;99.90;;;;;;4906881;29;20055;-96
2023/09/30 05:11:10;;;;;;;0.28;0.28;;;16.00;99.90;;;;;;4909686;29;20031;-96
2023/09/30 05:13:36;;;;;;;4.43;0.55;;;16.00;99.90;;;;;;4904682;29;20043;-96
2023/09/30 05:16:03;;;;;;;0.30;0.30;;;16.00;99.90;;;;;;4912688;29;20303;-96
2023/09/30 05:18:29;;;;;;;0.25;0.25;;;15.80;99.90;;;;;;4934393;29;20023;-96
2023/09/30 05:20:56;;;;;;;1.20;0.50;;;15.70;99.90;;;;;;4913369;29;20024;-96
2023/09/30 05:25:55;;;;;;;0.30;0.30;;;15.70;99.90;;;;;;4917244;29;20059;-96
2023/09/30 05:28:21;;;;;;;0.30;0.30;;;15.80;99.90;;;;;;4904886;29;20019;-96
2023/09/30 05:30:47;;;;;;;0.17;0.17;;;15.70;99.90;;;;;;4888684;29;20035;-96
2023/09/30 05:33:14;;;;;;;1.55;0.70;;;15.70;99.90;;;;;;4898319;29;20032;-96
2023/09/30 05:35:40;;;;;;;0.30;0.30;;;15.80;99.90;;;;;;4898492;29;20127;-96
2023/09/30 05:38:13;;;;;;;1.88;0.70;;;15.90;99.90;;;;;;4896906;29;20021;-95
2023/09/30 05:40:39;;;;;;;0.30;0.30;;;15.80;99.90;;;;;;4898492;29;20036;-96
2023/09/30 05:43:05;;;;;;;0.28;0.28;;;15.90;99.90;;;;;;4894651;29;20355;-96
2023/09/30 05:45:35;;;;;;;0.38;0.38;;;15.90;99.90;;;;;;4898176;29;20400;-96
2023/09/30 05:48:07;;;;;;;0.30;0.30;;;15.90;99.90;;;;;;4896149;29;20031;-96
2023/09/30 05:50:36;;;;;;;0.70;0.70;;;15.90;99.90;;;;;;4886296;29;20580;-96
2023/09/30 05:55:38;;;;;;;0.40;0.40;;;15.80;99.90;;;;;;4988909;23;21014;-93
2023/09/30 05:58:05;;;;;;;0.25;0.25;;;15.80;99.90;;;;;;4992610;23;20382;-93
2023/09/30 06:00:35;;;;;;;0.30;0.30;;;15.80;99.90;;;;;;4922752;29;20044;-95
2023/09/30 06:03:01;;;;;;;0.50;0.50;;;15.70;99.90;;;;;;4921041;29;20024;-96
2023/09/30 06:05:29;;;;;;;0.38;0.38;;;15.70;99.90;;;;;;4917127;29;20023;-95
2023/09/30 06:07:56;;;;;;;3.65;0.80;;;15.60;99.90;;;;;;4917525;29;20040;-95
2023/09/30 06:10:22;;;;;;;0.13;0.13;;;15.50;99.90;;;;;;4915842;29;20103;-94
2023/09/30 06:12:54;;;;;;;0.55;0.55;;;15.50;99.90;;;;;;4922183;29;20044;-95
2023/09/30 06:15:31;;;;;;;0.20;0.20;;;15.50;99.90;;;;;;4921363;29;20016;-96
2023/09/30 06:17:57;;;;;;;0.90;0.70;;;15.40;99.90;;;;;;4924385;29;20023;-95
2023/09/30 06:20:26;;;;;;;1.17;0.47;;;15.40;99.90;;;;;;4918230;29;20020;-95
2023/09/30 06:22:55;;;;;;;0.10;0.10;;;15.40;99.90;;;;;;4919964;29;20113;-95
2023/09/30 06:25:23;;;;;;;0.70;0.68;;;15.30;99.90;;;;;;4933867;28;20031;-95
2023/09/30 06:27:50;;;;;;;0.45;0.45;;;15.30;99.90;;;;;;4922920;29;20032;-95
2023/09/30 06:30:17;;;;;;;0.25;0.25;;;15.40;99.90;;;;;;4917655;29;20035;-95
2023/09/30 06:33:00;;;;;;;0.40;0.40;;;15.50;99.90;;;;;;4922288;29;20040;-96
2023/09/30 06:35:26;;;;;;;;;;;15.60;99.90;;;;;;4915546;29;20130;-96
2023/09/30 06:37:52;;;;;;;1.85;0.50;;;15.60;99.90;;;;;;4929529;29;19911;-95
2023/09/30 06:40:20;;;;;;;0.20;0.20;;;15.60;99.90;;;;;;4933573;29;20027;-96
2023/09/30 06:45:24;;;;;;;0.80;0.75;;;15.60;99.90;;;;;;5297810;23;20025;-94
2023/09/30 06:47:50;;;;;;;0.52;0.52;;;15.70;99.90;;;;;;4962828;28;20059;-95
2023/09/30 06:50:16;;;;;;;0.75;0.75;;;15.70;99.90;;;;;;4955616;28;20023;-96
2023/09/30 06:52:49;;;;;;;0.40;0.40;;;15.70;99.90;;;;;;4947380;28;20040;-96
2023/09/30 06:55:16;;;;;;;0.20;0.20;;;15.70;99.90;;;;;;4954338;28;20036;-96
2023/09/30 06:57:42;;;;;;;0.60;0.60;;;15.60;99.90;;;;;;4948566;28;20035;-95
2023/09/30 07:00:13;;;;;;;0.60;0.60;;;15.60;99.90;;;;;;4951559;28;20079;-95
2023/09/30 07:02:40;;;;;;;0.65;0.65;;;15.70;99.90;;;;;;4943841;28;20106;-96
2023/09/30 07:05:17;;;;;;;1.65;0.55;;;15.70;99.90;;;;;;4946819;28;20126;-95
2023/09/30 07:07:43;;;;;;;2.15;0.40;;;15.70;99.90;;;;;;4938085;28;20119;-94
2023/09/30 07:10:10;;;;;;;1.27;0.63;;;15.80;99.90;;;;;;4939505;28;20114;-94
2023/09/30 07:12:36;;;;;;;0.35;0.35;;;15.70;99.90;;;;;;4938479;28;20040;-94
2023/09/30 07:15:02;;;;;;;1.02;1.02;;;15.60;99.90;;;;;;4939669;28;20118;-94
2023/09/30 07:17:28;;;;;;;0.73;0.73;;;15.70;99.90;;;;;;4940436;28;20016;-95
2023/09/30 07:19:54;;;;;;;1.05;1.05;;;15.80;99.90;;;;;;4943924;28;20034;-94
2023/09/30 07:22:20;;;;;;;0.45;0.30;;;15.80;99.90;;;;;;4939653;28;20034;-94
2023/09/30 07:24:46;;;;;;;0.57;0.57;;;15.70;99.90;;;;;;4937502;28;20020;-94
2023/09/30 07:27:11;;;;;;;0.85;0.68;;;15.80;99.90;;;;;;4945216;28;20019;-94
2023/09/30 07:29:37;;;;;;;0.43;0.43;;;15.90;99.90;;;;;;4940484;28;20035;-95
2023/09/30 07:32:03;;;;;;;0.77;0.75;;;15.90;99.90;;;;;;4948967;28;20023;-94
2023/09/30 07:34:28;;;;;;;0.50;0.50;;;15.90;99.90;;;;;;4941348;28;20023;-95
2023/09/30 07:36:55;;;;;;;1.42;0.47;;;15.70;99.90;;;;;;4947059;28;20518;-94
2023/09/30 07:39:21;;;;;;;0.65;0.65;;;15.80;99.90;;;;;;4942687;28;20042;-94
2023/09/30 07:41:46;;;;;;;1.67;1.20;;;15.90;99.90;;;;;;4946764;28;20031;-95
2023/09/30 07:44:12;;;;;;;0.40;0.40;;;15.90;99.90;;;;;;4950084;28;20023;-94
2023/09/30 07:46:38;;;;;;;0.57;0.57;;;15.90;99.90;;;;;;4951631;28;20035;-95
2023/09/30 07:49:04;;;;;;;0.65;0.38;;;16.10;99.90;;;;;;4955686;28;20079;-94
2023/09/30 07:51:30;;;;;;;0.63;0.63;;;16.10;99.90;;;;;;4950804;28;20024;-94
2023/09/30 07:53:56;;;;;;;0.10;0.10;;;16.10;99.90;;;;;;4943249;28;20027;-94
2023/09/30 07:56:23;;;;;;;1.05;1.05;;;16.20;99.90;;;;;;4954488;28;20028;-95
2023/09/30 07:58:49;;;;;;;0.20;0.20;;;16.20;99.90;;;;;;4954093;28;20526;-94
2023/09/30 08:01:14;;;;;;;0.20;0.20;;;16.40;99.90;;;;;;4940920;28;20032;-94
2023/09/30 08:03:41;;;;;;;2.15;1.40;;;16.40;99.90;;;;;;4945089;28;20063;-95
2023/09/30 08:06:09;;;;;;;1.95;0.50;;;16.40;99.90;;;;;;4941438;28;20023;-93
2023/09/30 08:08:36;;;;;;;2.90;1.73;;;16.40;99.90;;;;;;4939799;28;20023;-94
2023/09/30 08:11:02;;;;;;;0.30;0.30;;;16.40;99.90;;;;;;4936571;28;20086;-93
2023/09/30 08:13:29;;;;;;;1.25;1.25;;;16.50;99.90;;;;;;4940991;28;20496;-93
2023/09/30 08:15:55;;;;;;;0.32;0.32;;;16.60;99.90;;;;;;4945470;28;20087;-93
2023/09/30 08:18:21;;;;;;;0.20;0.20;;;16.60;99.90;;;;;;4945999;28;20480;-93
2023/09/30 08:20:47;;;;;;;0.40;0.40;;;16.70;99.90;;;;;;4943265;28;20020;-94
2023/09/30 08:23:13;;;;;;;0.20;0.20;;;16.70;99.90;;;;;;4939938;28;20117;-94
2023/09/30 08:25:39;;;;;;;0.20;0.20;;;16.90;99.90;;;;;;4939251;28;20054;-94
2023/09/30 08:28:05;;;;;;;0.70;0.70;;;17.00;99.90;;;;;;4938897;28;20055;-94
2023/09/30 08:30:33;;;;;;;0.32;0.32;;;16.90;99.90;;;;;;4948728;28;20027;-93
2023/09/30 08:32:59;;;;;;;0.30;0.30;;;16.90;99.90;;;;;;4940081;28;20472;-93
2023/09/30 08:35:25;;;;;;;0.63;0.57;;;17.10;99.90;;;;;;4937348;28;20035;-93
2023/09/30 08:37:50;;;;;;;0.63;0.63;;;17.20;99.90;;;;;;4941012;28;20042;-93
2023/09/30 08:40:21;;;;;;;0.30;0.30;;;17.10;99.90;;;;;;4944853;28;20242;-94
2023/09/30 08:42:51;;;;;;;0.17;0.17;;;17.30;99.90;;;;;;4946275;28;20032;-94
2023/09/30 08:45:17;;;;;;;1.05;0.88;;;17.30;99.90;;;;;;4938276;28;20491;-94
2023/09/30 08:47:43;;;;;;;0.63;0.63;;;17.30;99.90;;;;;;4950855;28;20556;-93
2023/09/30 08:50:10;;;;;;;0.35;0.35;;;17.30;99.90;;;;;;4939629;28;20046;-94
2023/09/30 08:52:38;;;;;;;0.38;0.38;;;17.50;99.90;;;;;;4938527;28;21062;-93
2023/09/30 08:55:08;;;;;;;0.10;0.10;;;17.50;99.90;;;;;;4940866;28;20052;-94
2023/09/30 08:57:38;;;;;;;0.75;0.75;;;17.60;99.90;;;;;;4932614;28;20393;-94
2023/09/30 09:00:04;;;;;;;0.60;0.60;;;17.70;99.90;;;;;;4932802;28;20028;-95
2023/09/30 09:02:30;;;;;;;0.10;0.10;;;17.90;99.90;;;;;;4940733;28;20104;-93
2023/09/30 09:04:58;;;;;;;0.57;0.20;;;18.20;99.90;;;;;;4943921;28;20023;-94
2023/09/30 09:07:24;;;;;;;0.80;0.80;;;18.40;99.90;;;;;;4952564;28;20055;-94
2023/09/30 09:10:08;;;;;;;0.50;0.50;;;18.60;99.90;;;;;;4955685;28;20051;-96
2023/09/30 09:12:36;;;;;;;0.40;0.40;;;18.80;99.90;;;;;;4945332;28;20035;-96
2023/09/30 09:15:06;;;;;;;0.30;0.30;;;18.90;99.90;;;;;;4943725;28;20023;-95
2023/09/30 09:17:50;;;;;;;0.32;0.32;;;19.00;99.90;;;;;;4942032;28;20103;-96
2023/09/30 09:20:26;;;;;;;0.40;0.40;;;19.20;99.90;;;;;;4953044;28;20191;-96
2023/09/30 09:22:58;;;;;;;0.30;0.30;;;19.30;99.90;;;;;;4941897;28;20090;-96
2023/09/30 09:25:26;;;;;;;0.60;0.60;;;19.40;99.90;;;;;;4939423;28;20028;-95
2023/09/30 09:27:53;;;;;;;0.40;0.40;;;19.40;99.90;;;;;;4935020;28;20024;-94
2023/09/30 09:30:23;;;;;;;4.88;0.60;;;19.40;99.90;;;;;;4938141;28;20031;-95
2023/09/30 09:32:58;;;;;;;0.35;0.35;;;19.60;99.90;;;;;;4943810;28;20087;-96
2023/09/30 09:35:30;;;;;;;0.63;0.63;;;19.80;99.90;;;;;;4951990;28;20019;-96
2023/09/30 09:38:06;;;;;;;0.40;0.40;;;20.10;99.90;;;;;;4935741;28;20033;-96
2023/09/30 09:40:37;;;;;;;0.43;0.43;;;20.10;99.90;;;;;;4938884;28;20267;-96
2023/09/30 09:43:07;;;;;;;2.85;0.93;;;20.20;99.90;;;;;;4930886;28;20334;-96
2023/09/30 09:45:40;;;;;;;1.55;0.75;;;20.30;99.90;;;;;;4934259;28;20072;-94
2023/09/30 09:48:06;;;;;;;0.63;0.63;;;20.40;99.90;;;;;;4945964;28;20027;-94
2023/09/30 09:50:33;;;;;;;0.40;0.40;;;20.40;99.90;;;;;;4944661;28;20439;-96
2023/09/30 09:53:00;;;;;;;0.47;0.47;;;20.50;99.90;;;;;;4944332;28;20051;-94
2023/09/30 09:55:27;;;;;;;1.77;1.05;;;20.80;99.90;;;;;;4982810;23;20141;-95
2023/09/30 09:57:54;;;;;;;0.43;0.43;;;21.00;99.90;;;;;;5013836;23;20041;-96
2023/09/30 10:00:23;;;;;;;3.90;0.93;;;21.40;99.90;;;;;;5046732;23;20106;-96
2023/09/30 10:02:49;;;;;;;0.65;0.65;;;21.50;99.90;;;;;;4920955;29;20027;-96
2023/09/30 10:05:16;;;;;;;1.63;1.15;;;21.10;99.90;;;;;;4912737;29;20043;-96
2023/09/30 10:08:07;;;;;;;1.65;1.40;;;21.00;99.90;;;;;;4924805;29;20044;-96
2023/09/30 10:10:37;;;;;;;0.75;0.68;;;21.10;99.90;;;;;;4912071;29;20051;-95
2023/09/30 10:13:03;;;;;;;0.70;0.70;;;21.30;99.90;;;;;;4924749;29;20036;-95
2023/09/30 10:15:34;;;;;;;0.75;0.75;;;21.20;99.90;;;;;;4919704;29;20020;-96
2023/09/30 10:18:06;;;;;;;3.70;1.50;;;21.10;99.90;;;;;;5097505;23;20027;-95
2023/09/30 10:23:21;;;;;;;1.45;1.35;;;21.20;99.90;;;;;;4903132;29;20049;-93
2023/09/30 10:25:54;;;;;;;0.75;0.75;;;21.20;99.90;;;;;;4912473;29;20027;-95
2023/09/30 10:28:41;;;;;;;0.68;0.68;;;21.10;99.90;;;;;;4902532;29;20484;-92
2023/09/30 10:31:16;;;;;;;0.90;0.90;;;21.00;99.90;;;;;;4905328;29;20496;-92
2023/09/30 10:34:00;;;;;;;0.85;0.65;;;21.10;99.90;;;;;;4903057;29;20509;-92
2023/09/30 10:36:35;;;;;;;0.93;0.93;;;21.40;99.90;;;;;;4901382;29;20032;-91
2023/09/30 10:39:53;;;;;;;0.50;0.50;;;21.40;99.90;;;;;;4906298;29;20028;-96
2023/09/30 10:42:49;;;;;;;0.68;0.68;;;21.70;99.90;;;;;;4902989;29;20330;-91
2023/09/30 10:45:50;;;;;;;0.40;0.40;;;21.90;99.90;;;;;;4912098;29;20068;-94
2023/09/30 10:48:25;;;;;;;0.43;0.43;;;21.70;99.90;;;;;;4900015;29;20028;-96
2023/09/30 10:50:55;;;;;;;0.63;0.63;;;21.80;99.90;;;;;;4904114;29;20055;-94
2023/09/30 10:53:40;;;;;;;0.75;0.75;;;21.80;99.90;;;;;;4904338;29;20100;-95
2023/09/30 10:56:06;;;;;;;0.43;0.43;;;21.80;99.90;;;;;;4904538;29;20392;-95
2023/09/30 10:59:02;;;;;;;0.75;0.75;;;21.70;99.90;;;;;;4903514;29;20473;-96
2023/09/30 11:01:33;;;;;;;0.63;0.63;;;21.70;99.90;;;;;;4922037;29;20033;-94
2023/09/30 11:04:05;;;;;;;0.38;0.38;;;21.70;99.90;;;;;;4907076;29;20020;-96
2023/09/30 11:06:32;;;;;;;6.38;5.70;;;21.60;99.90;;;;;;4912241;29;20815;-91
2023/09/30 11:09:03;;;;;;;0.73;0.73;;;21.50;99.90;;;;;;4905227;29;20032;-92
2023/09/30 11:11:42;;;;;;;0.63;0.63;;;21.30;99.90;;;;;;4905589;29;20488;-91
2023/09/30 11:14:23;;;;;;;1.45;0.32;;;21.20;99.90;;;;;;4903285;29;20039;-93
2023/09/30 11:16:53;;;;;;;0.90;0.55;;;21.20;99.90;;;;;;4900237;29;20818;-93
2023/09/30 11:19:23;;;;;;;0.77;0.52;;;21.10;99.90;;;;;;4903969;29;20440;-93
2023/09/30 11:21:53;;;;;;;0.60;0.60;;;21.00;99.90;;;;;;4903724;29;20064;-91
2023/09/30 11:24:19;;;;;;;0.47;0.30;;;20.90;99.90;;;;;;4900504;29;20043;-92
2023/09/30 11:26:45;;;;;;;0.60;0.60;;;20.90;99.90;;;;;;4897387;29;20033;-94
2023/09/30 11:29:29;;;;;;;1.63;0.98;;;20.90;99.90;;;;;;4902757;29;20040;-94
2023/09/30 11:32:02;;;;;;;0.73;0.73;;;20.90;99.90;;;;;;4883763;29;20032;-95
2023/09/30 11:34:38;;;;;;;0.73;0.70;;;20.90;99.90;;;;;;4883922;29;20031;-94
2023/09/30 11:37:33;;;;;;;0.43;0.43;;;20.80;99.90;;;;;;4882234;29;20036;-95
2023/09/30 11:40:23;;;;;;;0.55;0.55;;;20.70;99.90;;;;;;5168525;23;20185;-95
2023/09/30 11:43:11;;;;;;;0.50;0.50;;;20.90;99.90;;;;;;5114819;23;20148;-96
2023/09/30 11:45:37;;;;;;;0.32;0.32;;;21.10;99.90;;;;;;4922099;29;20477;-96
2023/09/30 11:48:16;;;;;;;0.30;0.30;;;21.20;99.90;;;;;;4919778;29;20500;-92
2023/09/30 11:51:05;;;;;;;1.58;0.70;;;21.50;99.90;;;;;;4920748;29;20057;-95
2023/09/30 11:54:10;;;;;;;0.28;0.28;;;21.80;99.90;;;;;;4921955;29;20608;-96
2023/09/30 11:56:59;;;;;;;0.32;0.32;;;21.90;99.90;;;;;;4923442;29;20039;-94
2023/09/30 11:59:28;;;;;;;0.75;0.75;;;22.00;97.90;;;;;;4928897;29;20129;-96
2023/09/30 12:01:56;;;;;;;0.50;0.50;;;21.70;98.40;;;;;;4928044;29;20027;-92
2023/09/30 12:04:25;;;;;;;0.40;0.40;;;21.50;98.80;;;;;;4928664;29;20116;-96
2023/09/30 12:06:57;;;;;;;1.65;0.93;;;21.30;99.60;;;;;;4919509;29;20742;-96
2023/09/30 12:09:42;;;;;;;0.88;0.88;;;21.20;99.90;;;;;;4925664;29;20036;-96
2023/09/30 12:12:14;;;;;;;2.08;0.38;;;21.10;99.90;;;;;;4922875;29;20043;-94
2023/09/30 12:14:45;;;;;;;0.70;0.70;;;21.10;99.90;;;;;;4923375;29;20036;-95
2023/09/30 12:17:29;;;;;;;0.30;0.30;;;21.10;99.90;;;;;;4920948;29;20071;-97
2023/09/30 12:20:11;;;;;;;0.75;0.75;;;21.10;99.90;;;;;;4926534;29;20127;-96
2023/09/30 12:22:53;;;;;;;0.63;0.50;;;21.10;99.90;;;;;;4932895;29;20123;-96
2023/09/30 12:28:43;;;;;;;1.15;0.82;;;21.30;99.90;;;;;;5211205;23;20056;-96
2023/09/30 12:31:10;;;;;;;0.30;0.30;;;21.50;99.90;;;;;;4928314;28;20044;-96
2023/09/30 12:33:36;;;;;;;0.47;0.40;;;21.60;99.90;;;;;;4921319;29;20040;-95
2023/09/30 12:36:02;;;;;;;0.30;0.30;;;21.60;99.90;;;;;;4914976;29;20024;-96
2023/09/30 12:38:28;;;;;;;1.38;0.85;;;21.60;99.90;;;;;;4915625;29;20354;-95
2023/09/30 12:40:54;;;;;;;0.40;0.40;;;21.60;99.90;;;;;;4919680;29;20031;-94
2023/09/30 12:43:21;;;;;;;0.40;0.40;;;21.50;99.90;;;;;;4910610;29;20518;-92
2023/09/30 12:46:24;;;;;;;0.73;0.73;;;21.50;99.90;;;;;;4926453;29;20051;-95
2023/09/30 12:48:50;;;;;;;0.40;0.40;;;21.60;99.90;;;;;;4854705;29;20033;-94
2023/09/30 12:54:54;;;;;;;0.80;0.80;;;21.40;99.80;;;;;;4802025;29;20047;-93
2023/09/30 12:57:20;;;;;;;0.40;0.40;;;21.40;99.90;;;;;;4798154;29;20038;-93
2023/09/30 13:01:06;;;;;;;0.30;0.30;;;21.40;99.90;;;;;;4792897;29;20034;-96
2023/09/30 13:03:59;;;;;;;0.30;0.30;;;21.40;99.90;;;;;;4801418;29;20083;-96
2023/09/30 13:06:52;;;;;;;;;;;;;;;;;;;;;
2023/09/30 13:09:47;;;;;;;0.30;0.30;;;21.60;99.50;;;;;;4802147;29;20035;-96
2023/09/30 13:35:25;;;;;;;0.40;0.40;;;21.80;97.40;;;;;;4884581;29;20064;-93
2023/09/30 13:37:51;;;;;;;0.40;0.40;;;21.90;97.50;;;;;;4878302;29;20040;-93
2023/09/30 13:40:17;;;;;;;1.17;1.17;;;21.80;97.30;;;;;;4882079;29;20020;-93